createdAt,value
2022-08-03T00:00:13.434Z,64.45
2022-08-03T00:01:13.424Z,64.95
2022-08-03T00:02:13.658Z,64.95
2022-08-03T00:03:13.477Z,64.54
2022-08-03T00:04:13.396Z,65.15
2022-08-03T00:05:13.381Z,65.35
2022-08-03T00:06:13.372Z,65.05
2022-08-03T00:07:13.364Z,64.95
2022-08-03T00:08:13.386Z,64.95
2022-08-03T00:09:14.348Z,65.15
2022-08-03T00:10:13.336Z,65.05
2022-08-03T00:11:13.323Z,64.65
2022-08-03T00:12:13.501Z,65.35
2022-08-03T00:13:13.303Z,64.75
2022-08-03T00:14:13.310Z,65.35
2022-08-03T00:15:16.282Z,64.65
2022-08-03T00:16:13.278Z,65.05
2022-08-03T00:17:13.257Z,64.75
2022-08-03T00:18:14.262Z,64.84
2022-08-03T00:19:13.282Z,65.35
2022-08-03T00:20:13.236Z,65.25
2022-08-03T00:21:13.232Z,65.15
2022-08-03T00:22:13.375Z,64.95
2022-08-03T00:23:13.205Z,65.15
2022-08-03T00:24:13.228Z,65.05
2022-08-03T00:25:13.192Z,65.45
2022-08-03T00:26:13.177Z,65.05
2022-08-03T00:27:15.118Z,65.28
2022-08-03T00:28:13.160Z,65.05
2022-08-03T00:29:13.155Z,64.18
2022-08-03T00:30:13.157Z,64.98
2022-08-03T00:31:13.639Z,64.68
2022-08-03T00:32:13.428Z,64.78
2022-08-03T00:33:13.117Z,64.98
2022-08-03T00:34:13.106Z,65.38
2022-08-03T00:35:27.393Z,65.18
2022-08-03T00:36:15.087Z,65.18
2022-08-03T00:37:13.076Z,65.21
2022-08-03T00:38:13.065Z,64.68
2022-08-03T00:39:13.054Z,64.68
2022-08-03T00:40:13.083Z,64.88
2022-08-03T00:41:13.035Z,64.58
2022-08-03T00:42:13.106Z,64.78
2022-08-03T00:43:13.016Z,65.38
2022-08-03T00:44:13.009Z,64.58
2022-08-03T00:45:13.032Z,64.78
2022-08-03T00:46:16.308Z,64.88
2022-08-03T00:47:13.982Z,64.31
2022-08-03T00:48:32.856Z,64.61
2022-08-03T00:49:15.008Z,64.71
2022-08-03T00:50:12.950Z,64.81
2022-08-03T00:51:12.953Z,64.61
2022-08-03T00:52:12.931Z,64.81
2022-08-03T00:53:12.923Z,64.81
2022-08-03T00:54:12.909Z,65.41
2022-08-03T00:55:12.905Z,65.11
2022-08-03T00:56:12.944Z,65.41
2022-08-03T00:57:12.888Z,65.01
2022-08-03T00:58:12.876Z,64.91
2022-08-03T00:59:12.868Z,65.81
2022-08-03T01:00:12.856Z,65.88
2022-08-03T01:01:13.076Z,65.51
2022-08-03T01:02:12.832Z,65.51
2022-08-03T01:03:12.823Z,65.31
2022-08-03T01:04:12.809Z,64.51
2022-08-03T01:05:12.805Z,65.21
2022-08-03T01:06:12.795Z,65.61
2022-08-03T01:07:12.799Z,65.91
2022-08-03T01:08:12.772Z,65.34
2022-08-03T01:09:12.767Z,65.91
2022-08-03T01:10:12.755Z,65.41
2022-08-03T01:11:12.745Z,65.21
2022-08-03T01:12:12.753Z,65.91
2022-08-03T01:13:59.787Z,65.84
2022-08-03T01:14:18.577Z,66.11
2022-08-03T01:15:13.710Z,66.44
2022-08-03T01:16:12.698Z,66.35
2022-08-03T01:17:12.705Z,66.35
2022-08-03T01:18:12.678Z,66.64
2022-08-03T01:19:12.670Z,66.75
2022-08-03T01:20:12.657Z,66.31
2022-08-03T01:21:12.650Z,66.91
2022-08-03T01:22:12.671Z,66.41
2022-08-03T01:23:12.628Z,66.52
2022-08-03T01:24:12.622Z,66.35
2022-08-03T01:25:12.610Z,66.24
2022-08-03T01:26:12.604Z,66.24
2022-08-03T01:27:12.635Z,67.55
2022-08-03T01:28:12.597Z,67.55
2022-08-03T01:29:12.576Z,67.05
2022-08-03T01:30:12.574Z,67.25
2022-08-03T01:31:12.556Z,67.35
2022-08-03T01:33:00.340Z,67.45
2022-08-03T01:33:13.548Z,68.38
2022-08-03T01:34:14.720Z,68.68
2022-08-03T01:35:12.513Z,68.99
2022-08-03T01:36:12.504Z,69.39
2022-08-03T01:37:12.498Z,68.59
2022-08-03T01:38:12.503Z,68.59
2022-08-03T01:39:13.475Z,68.88
2022-08-03T01:40:12.505Z,69.19
2022-08-03T01:41:12.455Z,69.19
2022-08-03T01:42:12.444Z,68.79
2022-08-03T01:43:12.464Z,68.68
2022-08-03T01:44:30.030Z,68.41
2022-08-03T01:45:13.414Z,68.41
2022-08-03T01:46:12.405Z,69.42
2022-08-03T01:47:12.392Z,69.72
2022-08-03T01:48:12.411Z,69.82
2022-08-03T01:49:12.431Z,70.12
2022-08-03T01:50:12.392Z,69.72
2022-08-03T01:51:12.357Z,69.72
2022-08-03T01:52:12.343Z,70.63
2022-08-03T01:53:12.340Z,70.23
2022-08-03T01:54:12.353Z,70.12
2022-08-03T01:55:12.313Z,69.82
2022-08-03T01:56:12.309Z,70.16
2022-08-03T01:57:12.298Z,70.23
2022-08-03T01:58:12.289Z,70.73
2022-08-03T01:59:12.334Z,70.23
2022-08-03T02:00:12.273Z,70.46
2022-08-03T02:01:12.314Z,70.26
2022-08-03T02:02:31.722Z,70.06
2022-08-03T02:03:13.238Z,70.16
2022-08-03T02:04:12.273Z,70.16
2022-08-03T02:05:12.217Z,70.06
2022-08-03T02:06:55.626Z,69.85
2022-08-03T02:07:14.195Z,69.65
2022-08-03T02:08:12.189Z,69.65
2022-08-03T02:09:12.178Z,69.85
2022-08-03T02:10:12.184Z,70.16
2022-08-03T02:11:12.159Z,70.56
2022-08-03T02:12:12.151Z,70.66
2022-08-03T02:13:12.154Z,70.86
2022-08-03T02:14:12.125Z,70.86
2022-08-03T02:15:12.158Z,71.26
2022-08-03T02:16:12.106Z,71.06
2022-08-03T02:17:12.105Z,71.16
2022-08-03T02:18:12.088Z,70.96
2022-08-03T02:19:12.078Z,71.40
2022-08-03T02:20:12.122Z,71.97
2022-08-03T02:21:12.065Z,71.87
2022-08-03T02:22:13.264Z,72.10
2022-08-03T02:23:12.036Z,71.40
2022-08-03T02:24:12.027Z,71.50
2022-08-03T02:25:12.020Z,71.97
2022-08-03T02:26:12.027Z,71.80
2022-08-03T02:27:11.999Z,71.80
2022-08-03T02:28:11.988Z,72.10
2022-08-03T02:29:11.980Z,72.00
2022-08-03T02:30:11.971Z,72.10
2022-08-03T02:31:11.999Z,72.10
2022-08-03T02:32:11.953Z,72.41
2022-08-03T02:33:11.943Z,72.41
2022-08-03T02:34:11.930Z,72.00
2022-08-03T02:35:11.934Z,72.20
2022-08-03T02:36:11.956Z,72.10
2022-08-03T02:37:11.906Z,72.41
2022-08-03T02:38:11.885Z,72.61
2022-08-03T02:39:12.881Z,72.71
2022-08-03T02:40:11.872Z,72.61
2022-08-03T02:41:11.861Z,72.41
2022-08-03T02:42:12.158Z,72.50
2022-08-03T02:43:11.843Z,72.61
2022-08-03T02:44:11.822Z,72.41
2022-08-03T02:45:12.826Z,73.00
2022-08-03T02:46:11.806Z,72.50
2022-08-03T02:47:11.816Z,72.20
2022-08-03T02:48:11.791Z,72.03
2022-08-03T02:49:40.571Z,71.83
2022-08-03T02:50:12.786Z,71.73
2022-08-03T02:51:12.768Z,71.94
2022-08-03T02:52:13.172Z,72.14
2022-08-03T02:53:11.749Z,71.53
2022-08-03T02:54:11.735Z,71.63
2022-08-03T02:55:11.727Z,71.83
2022-08-03T02:56:11.723Z,71.73
2022-08-03T02:57:11.736Z,71.83
2022-08-03T02:58:11.701Z,71.73
2022-08-03T02:59:11.688Z,71.60
2022-08-03T03:00:11.683Z,71.30
2022-08-03T03:01:11.703Z,71.83
2022-08-03T03:02:11.716Z,71.73
2022-08-03T03:03:11.652Z,71.50
2022-08-03T03:04:11.641Z,71.50
2022-08-03T03:05:54.711Z,70.70
2022-08-03T03:06:12.621Z,70.79
2022-08-03T03:07:11.637Z,71.20
2022-08-03T03:08:18.504Z,71.00
2022-08-03T03:09:12.596Z,71.33
2022-08-03T03:10:11.578Z,71.40
2022-08-03T03:11:11.571Z,71.80
2022-08-03T03:12:11.563Z,70.19
2022-08-03T03:13:11.585Z,71.53
2022-08-03T03:14:11.543Z,70.50
2022-08-03T03:15:11.532Z,70.70
2022-08-03T03:16:11.526Z,70.50
2022-08-03T03:17:11.513Z,70.59
2022-08-03T03:18:11.547Z,69.89
2022-08-03T03:19:11.516Z,69.99
2022-08-03T03:20:11.484Z,69.69
2022-08-03T03:21:11.474Z,69.29
2022-08-03T03:22:11.462Z,69.69
2022-08-03T03:23:11.452Z,69.49
2022-08-03T03:24:11.459Z,70.09
2022-08-03T03:25:11.432Z,69.99
2022-08-03T03:26:11.419Z,70.29
2022-08-03T03:27:11.414Z,70.36
2022-08-03T03:28:12.406Z,69.49
2022-08-03T03:29:11.411Z,69.29
2022-08-03T03:30:11.388Z,69.79
2022-08-03T03:31:11.375Z,69.79
2022-08-03T03:32:11.363Z,69.49
2022-08-03T03:33:11.354Z,69.89
2022-08-03T03:34:11.375Z,69.69
2022-08-03T03:35:11.334Z,70.09
2022-08-03T03:36:11.320Z,69.49
2022-08-03T03:37:11.314Z,69.49
2022-08-03T03:38:11.301Z,69.89
2022-08-03T03:39:15.676Z,69.99
2022-08-03T03:40:12.277Z,69.59
2022-08-03T03:41:11.273Z,68.98
2022-08-03T03:42:11.268Z,68.68
2022-08-03T03:43:11.257Z,68.59
2022-08-03T03:44:11.246Z,69.38
2022-08-03T03:45:11.269Z,69.09
2022-08-03T03:46:11.227Z,68.98
2022-08-03T03:47:11.219Z,69.49
2022-08-03T03:48:11.206Z,68.78
2022-08-03T03:49:11.286Z,69.29
2022-08-03T03:50:11.223Z,69.29
2022-08-03T03:51:11.180Z,68.08
2022-08-03T03:52:11.172Z,68.08
2022-08-03T03:53:11.168Z,68.18
2022-08-03T03:54:11.168Z,68.18
2022-08-03T03:55:11.143Z,69.29
2022-08-03T03:56:11.150Z,68.98
2022-08-03T03:57:13.105Z,68.78
2022-08-03T03:58:11.115Z,68.98
2022-08-03T03:59:11.100Z,69.29
2022-08-03T04:00:11.094Z,68.98
2022-08-03T04:01:11.156Z,68.18
2022-08-03T04:02:11.080Z,68.18
2022-08-03T04:03:11.064Z,67.98
2022-08-03T04:04:11.058Z,67.88
2022-08-03T04:05:11.042Z,67.47
2022-08-03T04:06:11.083Z,67.85
2022-08-03T04:07:11.028Z,68.28
2022-08-03T04:08:11.018Z,68.35
2022-08-03T04:09:11.007Z,68.68
2022-08-03T04:10:14.766Z,68.28
2022-08-03T04:11:11.036Z,67.47
2022-08-03T04:12:10.979Z,67.27
2022-08-03T04:13:10.966Z,67.38
2022-08-03T04:14:10.959Z,67.38
2022-08-03T04:15:10.949Z,67.38
2022-08-03T04:16:10.937Z,67.38
2022-08-03T04:17:10.943Z,67.27
2022-08-03T04:18:10.917Z,66.47
2022-08-03T04:19:10.911Z,66.44
2022-08-03T04:20:10.901Z,67.38
2022-08-03T04:21:10.889Z,67.04
2022-08-03T04:22:10.897Z,67.44
2022-08-03T04:23:13.573Z,67.24
2022-08-03T04:24:11.858Z,67.24
2022-08-03T04:25:10.854Z,68.02
2022-08-03T04:26:10.844Z,67.82
2022-08-03T04:27:37.794Z,68.21
2022-08-03T04:28:30.995Z,68.12
2022-08-03T04:29:11.807Z,67.82
2022-08-03T04:30:10.801Z,67.41
2022-08-03T04:31:10.793Z,67.61
2022-08-03T04:32:10.788Z,68.21
2022-08-03T04:33:10.825Z,68.12
2022-08-03T04:34:10.776Z,66.31
2022-08-03T04:35:10.756Z,68.02
2022-08-03T04:36:10.746Z,67.98
2022-08-03T04:37:10.735Z,67.98
2022-08-03T04:38:10.827Z,69.09
2022-08-03T04:39:10.718Z,69.96
2022-08-03T04:40:10.707Z,68.59
2022-08-03T04:41:10.696Z,68.08
2022-08-03T04:42:10.683Z,68.29
2022-08-03T04:43:10.675Z,69.39
2022-08-03T04:44:10.687Z,69.69
2022-08-03T04:45:10.656Z,69.89
2022-08-03T04:46:10.647Z,69.79
2022-08-03T04:47:10.633Z,69.46
2022-08-03T04:48:10.641Z,69.15
2022-08-03T04:49:10.723Z,69.09
2022-08-03T04:50:13.489Z,69.69
2022-08-03T04:51:11.596Z,69.32
2022-08-03T04:52:10.613Z,69.45
2022-08-03T04:53:10.581Z,70.56
2022-08-03T04:54:10.597Z,70.76
2022-08-03T04:55:10.561Z,70.26
2022-08-03T04:56:10.547Z,70.86
2022-08-03T04:57:10.541Z,70.93
2022-08-03T04:58:11.527Z,70.93
2022-08-03T04:59:10.523Z,71.03
2022-08-03T05:00:10.528Z,70.06
2022-08-03T05:01:10.567Z,70.73
2022-08-03T05:02:10.569Z,70.73
2022-08-03T05:03:19.574Z,69.89
2022-08-03T05:04:11.475Z,70.50
2022-08-03T05:05:10.477Z,69.56
2022-08-03T05:06:11.375Z,68.12
2022-08-03T05:07:11.619Z,68.12
2022-08-03T05:08:11.194Z,68.52
2022-08-03T05:09:10.428Z,68.22
2022-08-03T05:10:16.047Z,68.62
2022-08-03T05:11:11.402Z,69.22
2022-08-03T05:12:10.396Z,69.62
2022-08-03T05:13:10.387Z,69.92
2022-08-03T05:14:10.378Z,69.42
2022-08-03T05:15:10.411Z,69.46
2022-08-03T05:16:10.361Z,69.76
2022-08-03T05:17:10.347Z,70.03
2022-08-03T05:18:13.962Z,69.42
2022-08-03T05:19:11.330Z,68.45
2022-08-03T05:20:10.355Z,68.65
2022-08-03T05:21:10.309Z,68.82
2022-08-03T05:22:10.340Z,70.43
2022-08-03T05:23:11.292Z,68.32
2022-08-03T05:24:10.279Z,68.65
2022-08-03T05:25:10.260Z,68.65
2022-08-03T05:26:12.279Z,69.56
2022-08-03T05:27:10.249Z,69.52
2022-08-03T05:28:10.243Z,70.83
2022-08-03T05:29:10.240Z,71.23
2022-08-03T05:30:30.589Z,71.43
2022-08-03T05:31:11.228Z,71.43
2022-08-03T05:32:10.251Z,71.53
2022-08-03T05:33:10.193Z,71.13
2022-08-03T05:34:10.181Z,71.23
2022-08-03T05:36:00.609Z,71.09
2022-08-03T05:36:11.211Z,69.85
2022-08-03T05:37:10.148Z,69.82
2022-08-03T05:38:10.146Z,67.85
2022-08-03T05:39:10.131Z,67.65
2022-08-03T05:40:10.121Z,66.52
2022-08-03T05:41:22.000Z,65.66
2022-08-03T05:42:11.100Z,64.49
2022-08-03T05:43:10.091Z,62.86
2022-08-03T05:44:10.081Z,62.23
2022-08-03T05:45:10.072Z,61.63
2022-08-03T05:46:12.440Z,61.63
2022-08-03T05:47:10.064Z,61.63
2022-08-03T05:48:10.038Z,62.66
2022-08-03T05:49:10.143Z,62.99
2022-08-03T05:50:10.022Z,64.32
2022-08-03T05:51:10.011Z,63.39
2022-08-03T05:52:14.893Z,63.59
2022-08-03T05:53:10.992Z,63.59
2022-08-03T05:54:09.986Z,63.06
2022-08-03T05:55:09.978Z,61.26
2022-08-03T05:56:13.562Z,63.06
2022-08-03T05:57:10.971Z,62.43
2022-08-03T05:58:09.951Z,62.53
2022-08-03T05:59:35.684Z,62.40
2022-08-03T06:00:11.933Z,62.50
2022-08-03T06:01:09.967Z,62.27
2022-08-03T06:02:10.017Z,61.08
2022-08-03T06:03:09.900Z,61.68
2022-08-03T06:04:09.890Z,62.40
2022-08-03T06:05:09.878Z,63.03
2022-08-03T06:06:09.872Z,62.16
2022-08-03T06:07:09.900Z,62.93
2022-08-03T06:08:09.851Z,62.70
2022-08-03T06:09:10.846Z,62.40
2022-08-03T06:10:37.133Z,62.63
2022-08-03T06:11:10.822Z,62.43
2022-08-03T06:12:13.938Z,62.43
2022-08-03T06:13:10.823Z,63.17
2022-08-03T06:14:09.798Z,64.39
2022-08-03T06:15:11.523Z,64.19
2022-08-03T06:16:09.790Z,64.99
2022-08-03T06:17:09.764Z,64.69
2022-08-03T06:18:09.768Z,65.19
2022-08-03T06:19:09.745Z,65.29
2022-08-03T06:20:09.733Z,63.93
2022-08-03T06:21:15.620Z,64.03
2022-08-03T06:22:10.718Z,62.73
2022-08-03T06:23:16.184Z,62.93
2022-08-03T06:24:10.700Z,63.30
2022-08-03T06:25:12.800Z,63.10
2022-08-03T06:26:11.192Z,62.60
2022-08-03T06:27:09.676Z,61.35
2022-08-03T06:28:19.110Z,60.16
2022-08-03T06:29:11.666Z,58.91
2022-08-03T06:30:09.646Z,55.80
2022-08-03T06:31:09.639Z,57.24
2022-08-03T06:32:09.623Z,55.27
2022-08-03T06:33:09.642Z,53.48
2022-08-03T06:34:32.872Z,53.56
2022-08-03T06:35:10.590Z,52.73
2022-08-03T06:36:09.577Z,52.31
2022-08-03T06:37:09.568Z,52.66
2022-08-03T06:38:09.603Z,52.98
2022-08-03T06:39:09.556Z,52.71
2022-08-03T06:40:09.541Z,52.71
2022-08-03T06:41:09.625Z,52.91
2022-08-03T06:42:09.877Z,52.69
2022-08-03T06:43:12.585Z,51.70
2022-08-03T06:44:10.521Z,50.48
2022-08-03T06:45:09.498Z,51.89
2022-08-03T06:46:09.487Z,52.71
2022-08-03T06:47:09.475Z,51.65
2022-08-03T06:48:10.465Z,49.52
2022-08-03T06:49:09.543Z,48.49
2022-08-03T06:50:14.932Z,47.52
2022-08-03T06:51:10.433Z,48.06
2022-08-03T06:52:09.428Z,49.69
2022-08-03T06:53:09.419Z,51.57
2022-08-03T06:54:10.447Z,52.96
2022-08-03T06:55:09.399Z,52.76
2022-08-03T06:56:09.388Z,52.56
2022-08-03T06:57:09.377Z,53.38
2022-08-03T06:58:09.363Z,53.66
2022-08-03T06:59:09.386Z,51.25
2022-08-03T07:00:12.401Z,51.35
2022-08-03T07:01:10.418Z,50.63
2022-08-03T07:02:09.351Z,51.42
2022-08-03T07:03:09.339Z,51.32
2022-08-03T07:04:09.315Z,51.32
2022-08-03T07:05:09.313Z,52.47
2022-08-03T07:06:09.291Z,52.34
2022-08-03T07:07:09.287Z,51.30
2022-08-03T07:08:09.267Z,50.38
2022-08-03T07:09:09.262Z,49.25
2022-08-03T07:10:09.265Z,49.74
2022-08-03T07:11:09.235Z,50.16
2022-08-03T07:12:09.230Z,51.25
2022-08-03T07:13:09.254Z,50.98
2022-08-03T07:14:09.211Z,51.07
2022-08-03T07:15:09.218Z,51.42
2022-08-03T07:16:10.190Z,50.68
2022-08-03T07:17:11.624Z,51.18
2022-08-03T07:18:09.171Z,52.96
2022-08-03T07:19:09.163Z,55.49
2022-08-03T07:20:09.177Z,55.22
2022-08-03T07:21:09.142Z,55.19
2022-08-03T07:22:09.158Z,54.28
2022-08-03T07:23:09.133Z,54.17
2022-08-03T07:24:09.116Z,53.11
2022-08-03T07:25:09.135Z,51.30
2022-08-03T07:26:09.094Z,50.26
2022-08-03T07:27:10.090Z,49.96
2022-08-03T07:28:09.083Z,47.77
2022-08-03T07:29:14.899Z,49.35
2022-08-03T07:30:10.092Z,49.00
2022-08-03T07:31:09.051Z,49.27
2022-08-03T07:32:09.043Z,49.94
2022-08-03T07:33:09.031Z,48.46
2022-08-03T07:34:09.024Z,48.26
2022-08-03T07:35:09.011Z,47.94
2022-08-03T07:36:10.034Z,47.72
2022-08-03T07:37:08.993Z,48.71
2022-08-03T07:38:08.987Z,47.42
2022-08-03T07:39:15.949Z,46.91
2022-08-03T07:40:09.967Z,46.48
2022-08-03T07:41:08.996Z,47.40
2022-08-03T07:42:08.951Z,48.21
2022-08-03T07:43:08.941Z,47.50
2022-08-03T07:44:08.925Z,46.44
2022-08-03T07:45:08.919Z,46.51
2022-08-03T07:46:09.935Z,47.79
2022-08-03T07:47:09.190Z,47.79
2022-08-03T07:48:12.397Z,47.10
2022-08-03T07:49:09.915Z,47.22
2022-08-03T07:50:08.982Z,48.08
2022-08-03T07:51:08.867Z,49.59
2022-08-03T07:52:08.880Z,50.26
2022-08-03T07:53:08.841Z,52.00
2022-08-03T07:54:08.831Z,51.30
2022-08-03T07:55:08.821Z,51.77
2022-08-03T07:56:11.477Z,51.28
2022-08-03T07:57:08.815Z,50.48
2022-08-03T07:58:08.794Z,50.36
2022-08-03T07:59:08.785Z,50.81
2022-08-03T08:00:08.777Z,52.61
2022-08-03T08:01:08.832Z,52.61
2022-08-03T08:02:08.768Z,52.39
2022-08-03T08:03:08.761Z,52.47
2022-08-03T08:04:08.732Z,51.37
2022-08-03T08:05:08.727Z,53.08
2022-08-03T08:06:08.723Z,51.92
2022-08-03T08:07:08.706Z,51.72
2022-08-03T08:08:08.711Z,51.95
2022-08-03T08:09:08.688Z,53.46
2022-08-03T08:10:08.676Z,52.86
2022-08-03T08:11:08.668Z,53.69
2022-08-03T08:12:15.014Z,53.58
2022-08-03T08:13:09.691Z,54.68
2022-08-03T08:14:08.637Z,54.25
2022-08-03T08:15:08.632Z,54.35
2022-08-03T08:16:08.614Z,53.46
2022-08-03T08:17:08.608Z,54.46
2022-08-03T08:18:08.656Z,53.66
2022-08-03T08:19:08.587Z,53.66
2022-08-03T08:20:08.578Z,53.26
2022-08-03T08:21:08.777Z,53.86
2022-08-03T08:22:08.578Z,53.96
2022-08-03T08:23:20.843Z,52.56
2022-08-03T08:24:11.059Z,53.46
2022-08-03T08:25:10.539Z,52.84
2022-08-03T08:26:08.525Z,54.03
2022-08-03T08:27:08.515Z,53.04
2022-08-03T08:28:29.286Z,52.81
2022-08-03T08:29:09.529Z,51.42
2022-08-03T08:30:11.441Z,52.72
2022-08-03T08:31:09.476Z,52.12
2022-08-03T08:32:08.459Z,51.70
2022-08-03T08:33:10.473Z,51.30
2022-08-03T08:34:10.468Z,51.07
2022-08-03T08:35:08.431Z,50.58
2022-08-03T08:36:13.308Z,49.59
2022-08-03T08:37:09.410Z,50.06
2022-08-03T08:38:08.402Z,50.56
2022-08-03T08:39:08.388Z,49.86
2022-08-03T08:40:08.395Z,48.38
2022-08-03T08:41:08.366Z,47.98
2022-08-03T08:42:08.365Z,48.67
2022-08-03T08:43:08.355Z,48.55
2022-08-03T08:44:08.345Z,46.67
2022-08-03T08:45:08.351Z,46.35
2022-08-03T08:46:08.459Z,45.68
2022-08-03T08:47:08.315Z,46.47
2022-08-03T08:48:08.629Z,48.05
2022-08-03T08:49:09.371Z,47.63
2022-08-03T08:50:15.556Z,48.01
2022-08-03T08:51:10.276Z,47.71
2022-08-03T08:52:22.156Z,47.00
2022-08-03T08:53:09.877Z,45.81
2022-08-03T08:54:09.250Z,45.53
2022-08-03T08:55:08.283Z,44.35
2022-08-03T08:56:08.231Z,46.62
2022-08-03T08:57:21.307Z,48.08
2022-08-03T08:58:10.251Z,47.59
2022-08-03T08:59:08.199Z,47.19
2022-08-03T09:00:08.194Z,44.20
2022-08-03T09:01:08.230Z,45.39
2022-08-03T09:02:08.167Z,44.58
2022-08-03T09:03:08.163Z,43.88
2022-08-03T09:04:08.153Z,44.46
2022-08-03T09:05:08.140Z,44.26
2022-08-03T09:06:08.145Z,41.89
2022-08-03T09:07:19.754Z,42.11
2022-08-03T09:08:10.116Z,45.00
2022-08-03T09:09:08.306Z,44.20
2022-08-03T09:10:11.766Z,46.45
2022-08-03T09:11:09.144Z,44.38
2022-08-03T09:12:35.337Z,43.98
2022-08-03T09:13:10.064Z,45.29
2022-08-03T09:14:08.058Z,45.09
2022-08-03T09:15:16.940Z,45.15
2022-08-03T09:16:10.077Z,44.95
2022-08-03T09:17:08.029Z,42.99
2022-08-03T09:18:08.024Z,43.41
2022-08-03T09:19:08.014Z,45.12
2022-08-03T09:20:08.006Z,44.60
2022-08-03T09:21:29.753Z,44.60
2022-08-03T09:22:09.999Z,43.19
2022-08-03T09:23:43.008Z,43.69
2022-08-03T09:24:20.594Z,44.97
2022-08-03T09:25:23.828Z,44.06
2022-08-03T09:26:09.964Z,44.24
2022-08-03T09:27:08.932Z,43.73
2022-08-03T09:28:07.922Z,41.95
2022-08-03T09:29:13.429Z,41.95
2022-08-03T09:30:33.657Z,43.43
2022-08-03T09:31:08.911Z,42.83
2022-08-03T09:32:07.901Z,44.12
2022-08-03T09:33:08.333Z,44.61
2022-08-03T09:34:08.869Z,43.11
2022-08-03T09:35:09.504Z,41.53
2022-08-03T09:36:07.849Z,42.93
2022-08-03T09:37:07.856Z,43.01
2022-08-03T09:38:13.725Z,42.89
2022-08-03T09:39:08.833Z,42.00
2022-08-03T09:40:08.343Z,41.91
2022-08-03T09:41:07.806Z,43.76
2022-08-03T09:42:07.830Z,41.78
2022-08-03T09:43:07.784Z,42.97
2022-08-03T09:44:07.779Z,41.20
2022-08-03T09:45:07.773Z,42.87
2022-08-03T09:46:07.814Z,41.69
2022-08-03T09:47:07.789Z,41.30
2022-08-03T09:48:07.738Z,40.78
2022-08-03T09:49:11.679Z,40.88
2022-08-03T09:50:07.722Z,41.27
2022-08-03T09:51:13.086Z,42.26
2022-08-03T09:52:32.683Z,41.86
2022-08-03T09:53:08.694Z,42.95
2022-08-03T09:54:15.101Z,41.27
2022-08-03T09:56:34.595Z,41.35
2022-08-03T09:56:35.821Z,42.34
2022-08-03T09:57:08.659Z,41.06
2022-08-03T09:58:07.661Z,42.83
2022-08-03T09:59:07.637Z,41.94
2022-08-03T10:00:08.473Z,41.94
2022-08-03T10:01:23.991Z,42.04
2022-08-03T10:02:08.612Z,43.03
2022-08-03T10:03:07.620Z,41.75
2022-08-03T10:04:07.591Z,40.86
2022-08-03T10:05:07.593Z,40.56
2022-08-03T10:06:07.590Z,39.60
2022-08-03T10:07:07.569Z,40.61
2022-08-03T10:08:07.591Z,42.97
2022-08-03T10:09:07.547Z,43.84
2022-08-03T10:10:30.226Z,43.74
2022-08-03T10:11:08.520Z,43.05
2022-08-03T10:12:07.516Z,41.35
2022-08-03T10:13:07.555Z,41.35
2022-08-03T10:14:07.494Z,41.35
2022-08-03T10:15:07.507Z,41.63
2022-08-03T10:16:22.182Z,40.94
2022-08-03T10:17:08.470Z,41.14
2022-08-03T10:18:07.462Z,41.24
2022-08-03T10:19:07.475Z,40.84
2022-08-03T10:20:07.438Z,41.02
2022-08-03T10:21:07.433Z,40.33
2022-08-03T10:22:07.425Z,40.80
2022-08-03T10:23:07.419Z,39.13
2022-08-03T10:24:07.423Z,38.66
2022-08-03T10:25:07.400Z,38.78
2022-08-03T10:26:07.384Z,40.94
2022-08-03T10:27:07.425Z,41.24
2022-08-03T10:28:07.366Z,39.84
2022-08-03T10:29:07.374Z,40.41
2022-08-03T10:30:08.352Z,40.01
2022-08-03T10:31:07.351Z,39.80
2022-08-03T10:32:07.406Z,40.37
2022-08-03T10:33:15.637Z,40.86
2022-08-03T10:34:08.345Z,39.95
2022-08-03T10:35:19.075Z,39.35
2022-08-03T10:36:08.299Z,39.62
2022-08-03T10:37:07.287Z,37.54
2022-08-03T10:38:07.271Z,36.45
2022-08-03T10:39:16.296Z,35.66
2022-08-03T10:40:08.330Z,37.13
2022-08-03T10:41:07.253Z,37.12
2022-08-03T10:42:10.682Z,36.43
2022-08-03T10:43:08.238Z,35.93
2022-08-03T10:44:07.242Z,35.61
2022-08-03T10:45:07.238Z,35.61
2022-08-03T10:46:07.206Z,35.30
2022-08-03T10:47:07.193Z,34.62
2022-08-03T10:48:07.192Z,35.58
2022-08-03T10:49:07.217Z,34.58
2022-08-03T10:50:07.182Z,33.59
2022-08-03T10:51:07.160Z,33.28
2022-08-03T10:52:11.349Z,33.38
2022-08-03T10:53:08.149Z,33.89
2022-08-03T10:54:07.129Z,33.40
2022-08-03T10:55:07.592Z,33.22
2022-08-03T10:56:07.105Z,33.07
2022-08-03T10:57:13.509Z,35.21
2022-08-03T10:58:11.140Z,35.66
2022-08-03T10:59:08.904Z,34.96
2022-08-03T11:00:07.102Z,34.84
2022-08-03T11:01:07.093Z,33.95
2022-08-03T11:02:07.093Z,32.47
2022-08-03T11:03:07.047Z,32.96
2022-08-03T11:04:10.975Z,31.23
2022-08-03T11:05:09.043Z,33.28
2022-08-03T11:06:07.035Z,33.93
2022-08-03T11:07:07.012Z,33.44
2022-08-03T11:08:07.003Z,33.41
2022-08-03T11:09:07.001Z,32.24
2022-08-03T11:10:10.535Z,31.46
2022-08-03T11:11:07.977Z,31.46
2022-08-03T11:12:06.978Z,32.05
2022-08-03T11:13:06.958Z,32.75
2022-08-03T11:14:06.948Z,32.32
2022-08-03T11:15:07.215Z,32.02
2022-08-03T11:16:10.937Z,31.30
2022-08-03T11:17:08.068Z,30.62
2022-08-03T11:18:07.919Z,29.74
2022-08-03T11:19:06.907Z,29.28
2022-08-03T11:20:06.931Z,29.57
2022-08-03T11:21:06.891Z,30.35
2022-08-03T11:22:06.879Z,31.81
2022-08-03T11:23:06.874Z,30.15
2022-08-03T11:24:07.029Z,31.14
2022-08-03T11:25:06.901Z,30.26
2022-08-03T11:26:06.849Z,31.37
2022-08-03T11:27:06.838Z,31.53
2022-08-03T11:28:06.830Z,31.41
2022-08-03T11:29:06.822Z,30.26
2022-08-03T11:30:06.814Z,30.25
2022-08-03T11:31:06.827Z,30.35
2022-08-03T11:32:06.797Z,30.18
2022-08-03T11:33:06.792Z,30.19
2022-08-03T11:34:06.775Z,30.10
2022-08-03T11:35:06.773Z,31.85
2022-08-03T11:36:06.785Z,31.34
2022-08-03T11:37:06.819Z,31.51
2022-08-03T11:38:06.753Z,30.25
2022-08-03T11:39:06.741Z,31.35
2022-08-03T11:40:06.733Z,31.64
2022-08-03T11:41:06.747Z,31.92
2022-08-03T11:42:06.712Z,32.21
2022-08-03T11:43:06.714Z,30.08
2022-08-03T11:44:06.698Z,32.15
2022-08-03T11:45:06.698Z,31.67
2022-08-03T11:46:06.705Z,32.73
2022-08-03T11:47:06.675Z,32.21
2022-08-03T11:48:06.668Z,31.11
2022-08-03T11:49:10.265Z,30.12
2022-08-03T11:50:07.696Z,29.43
2022-08-03T11:51:06.689Z,29.43
2022-08-03T11:52:06.659Z,29.14
2022-08-03T11:53:06.651Z,28.54
2022-08-03T11:54:06.623Z,28.45
2022-08-03T11:55:06.617Z,30.41
2022-08-03T11:56:06.647Z,29.52
2022-08-03T11:57:07.609Z,28.34
2022-08-03T11:59:10.606Z,29.61
2022-08-03T11:59:18.814Z,29.12
2022-08-03T12:00:07.611Z,30.11
2022-08-03T12:01:06.568Z,30.38
2022-08-03T12:02:06.576Z,28.54
2022-08-03T12:03:06.651Z,29.41
2022-08-03T12:04:06.548Z,28.91
2022-08-03T12:05:06.535Z,27.62
2022-08-03T12:06:06.530Z,28.50
2022-08-03T12:07:06.535Z,29.06
2022-08-03T12:08:07.182Z,27.81
2022-08-03T12:09:07.501Z,27.89
2022-08-03T12:10:06.542Z,27.61
2022-08-03T12:11:06.484Z,27.62
2022-08-03T12:12:06.498Z,29.38
2022-08-03T12:14:27.419Z,28.43
2022-08-03T12:14:51.063Z,28.53
2022-08-03T12:15:07.469Z,28.51
2022-08-03T12:16:06.442Z,27.92
2022-08-03T12:17:06.453Z,28.40
2022-08-03T12:18:06.429Z,28.58
2022-08-03T12:19:06.424Z,27.72
2022-08-03T12:20:06.435Z,29.17
2022-08-03T12:21:06.420Z,28.72
2022-08-03T12:22:06.413Z,29.90
2022-08-03T12:23:06.390Z,29.50
2022-08-03T12:24:06.383Z,29.28
2022-08-03T12:25:06.376Z,28.70
2022-08-03T12:26:06.366Z,29.21
2022-08-03T12:27:06.373Z,28.25
2022-08-03T12:28:06.344Z,29.72
2022-08-03T12:29:07.345Z,29.05
2022-08-03T12:30:06.406Z,29.93
2022-08-03T12:31:06.329Z,28.89
2022-08-03T12:32:06.353Z,29.68
2022-08-03T12:33:06.322Z,30.43
2022-08-03T12:34:06.304Z,30.41
2022-08-03T12:35:06.340Z,29.82
2022-08-03T12:36:06.286Z,30.41
2022-08-03T12:37:22.195Z,29.75
2022-08-03T12:38:07.272Z,29.97
2022-08-03T12:39:06.269Z,30.15
2022-08-03T12:40:10.013Z,30.72
2022-08-03T12:41:07.253Z,30.24
2022-08-03T12:42:06.269Z,30.22
2022-08-03T12:43:06.238Z,30.11
2022-08-03T12:44:06.229Z,29.51
2022-08-03T12:45:06.216Z,29.41
2022-08-03T12:46:06.220Z,30.77
2022-08-03T12:47:06.226Z,28.81
2022-08-03T12:48:06.193Z,27.93
2022-08-03T12:49:06.247Z,29.79
2022-08-03T12:50:06.242Z,29.58
2022-08-03T12:51:06.171Z,29.27
2022-08-03T12:52:07.692Z,29.47